sensor_id;sensor_type;location;lat;lon;timestamp;P1;durP1;ratioP1;P2;durP2;ratioP2
71116;SDS011;58775;46.992;9.518;2023-11-19T00:00:41;2.53;;;0.38;;
71116;SDS011;58775;46.992;9.518;2023-11-19T00:02:42;1.88;;;0.30;;
71116;SDS011;58775;46.992;9.518;2023-11-19T00:04:43;3.50;;;0.30;;
71116;SDS011;58775;46.992;9.518;2023-11-19T00:06:44;2.13;;;0.52;;
71116;SDS011;58775;46.992;9.518;2023-11-19T00:08:45;2.38;;;0.43;;
71116;SDS011;58775;46.992;9.518;2023-11-19T00:10:45;2.07;;;0.37;;
71116;SDS011;58775;46.992;9.518;2023-11-19T00:12:47;1.85;;;0.40;;
71116;SDS011;58775;46.992;9.518;2023-11-19T00:14:49;3.35;;;0.70;;
71116;SDS011;58775;46.992;9.518;2023-11-19T00:16:50;2.00;;;0.30;;
71116;SDS011;58775;46.992;9.518;2023-11-19T00:18:51;2.92;;;0.40;;
71116;SDS011;58775;46.992;9.518;2023-11-19T00:20:52;3.95;;;0.63;;
71116;SDS011;58775;46.992;9.518;2023-11-19T00:22:53;3.37;;;0.30;;
71116;SDS011;58775;46.992;9.518;2023-11-19T00:24:53;0.40;;;0.20;;
71116;SDS011;58775;46.992;9.518;2023-11-19T00:26:54;1.57;;;0.50;;
71116;SDS011;58775;46.992;9.518;2023-11-19T00:28:55;1.38;;;0.30;;
71116;SDS011;58775;46.992;9.518;2023-11-19T00:30:56;1.45;;;0.40;;
71116;SDS011;58775;46.992;9.518;2023-11-19T00:32:57;1.53;;;0.40;;
71116;SDS011;58775;46.992;9.518;2023-11-19T00:34:58;4.30;;;0.75;;
71116;SDS011;58775;46.992;9.518;2023-11-19T00:36:58;1.67;;;0.40;;
71116;SDS011;58775;46.992;9.518;2023-11-19T00:38:59;2.13;;;0.35;;
71116;SDS011;58775;46.992;9.518;2023-11-19T00:41:00;1.15;;;0.30;;
71116;SDS011;58775;46.992;9.518;2023-11-19T00:43:02;3.63;;;0.60;;
71116;SDS011;58775;46.992;9.518;2023-11-19T00:45:03;1.48;;;0.68;;
71116;SDS011;58775;46.992;9.518;2023-11-19T00:47:08;3.40;;;0.52;;
71116;SDS011;58775;46.992;9.518;2023-11-19T00:49:09;3.30;;;0.80;;
71116;SDS011;58775;46.992;9.518;2023-11-19T00:51:11;2.55;;;0.70;;
71116;SDS011;58775;46.992;9.518;2023-11-19T00:53:13;3.08;;;0.60;;
71116;SDS011;58775;46.992;9.518;2023-11-19T00:55:13;2.30;;;0.40;;
71116;SDS011;58775;46.992;9.518;2023-11-19T00:57:14;2.03;;;0.60;;
71116;SDS011;58775;46.992;9.518;2023-11-19T00:59:15;2.50;;;0.60;;
71116;SDS011;58775;46.992;9.518;2023-11-19T01:01:16;1.77;;;0.40;;
71116;SDS011;58775;46.992;9.518;2023-11-19T01:03:17;1.98;;;0.45;;
71116;SDS011;58775;46.992;9.518;2023-11-19T01:05:18;2.65;;;1.05;;
71116;SDS011;58775;46.992;9.518;2023-11-19T01:07:22;1.20;;;0.40;;
71116;SDS011;58775;46.992;9.518;2023-11-19T01:09:25;4.10;;;0.40;;
71116;SDS011;58775;46.992;9.518;2023-11-19T01:11:27;2.20;;;0.30;;
71116;SDS011;58775;46.992;9.518;2023-11-19T01:13:28;2.38;;;0.40;;
71116;SDS011;58775;46.992;9.518;2023-11-19T01:15:29;2.15;;;0.50;;
71116;SDS011;58775;46.992;9.518;2023-11-19T01:17:30;2.00;;;0.50;;
71116;SDS011;58775;46.992;9.518;2023-11-19T01:19:32;2.10;;;0.30;;
71116;SDS011;58775;46.992;9.518;2023-11-19T01:21:32;3.17;;;0.40;;
71116;SDS011;58775;46.992;9.518;2023-11-19T01:23:34;2.23;;;0.70;;
71116;SDS011;58775;46.992;9.518;2023-11-19T01:25:35;1.60;;;0.47;;
71116;SDS011;58775;46.992;9.518;2023-11-19T01:27:35;1.50;;;0.30;;
71116;SDS011;58775;46.992;9.518;2023-11-19T01:29:36;1.87;;;0.40;;
71116;SDS011;58775;46.992;9.518;2023-11-19T01:31:38;0.68;;;0.30;;
71116;SDS011;58775;46.992;9.518;2023-11-19T01:33:39;2.55;;;0.50;;
71116;SDS011;58775;46.992;9.518;2023-11-19T01:35:41;2.40;;;0.50;;
71116;SDS011;58775;46.992;9.518;2023-11-19T01:37:42;2.93;;;0.50;;
71116;SDS011;58775;46.992;9.518;2023-11-19T01:39:43;1.75;;;0.50;;
71116;SDS011;58775;46.992;9.518;2023-11-19T01:41:45;1.73;;;0.50;;
71116;SDS011;58775;46.992;9.518;2023-11-19T01:43:46;1.53;;;0.43;;
71116;SDS011;58775;46.992;9.518;2023-11-19T01:45:47;1.30;;;0.40;;
71116;SDS011;58775;46.992;9.518;2023-11-19T01:47:50;1.60;;;0.40;;
71116;SDS011;58775;46.992;9.518;2023-11-19T01:49:52;2.13;;;0.45;;
71116;SDS011;58775;46.992;9.518;2023-11-19T01:51:53;2.40;;;0.53;;
71116;SDS011;58775;46.992;9.518;2023-11-19T01:53:53;1.65;;;0.30;;
71116;SDS011;58775;46.992;9.518;2023-11-19T01:55:56;1.67;;;0.50;;
71116;SDS011;58775;46.992;9.518;2023-11-19T01:57:59;2.83;;;0.60;;
71116;SDS011;58775;46.992;9.518;2023-11-19T02:00:01;3.25;;;0.55;;
71116;SDS011;58775;46.992;9.518;2023-11-19T02:02:13;4.10;;;0.55;;
71116;SDS011;58775;46.992;9.518;2023-11-19T02:04:14;2.05;;;0.40;;
71116;SDS011;58775;46.992;9.518;2023-11-19T02:06:16;2.22;;;0.50;;
71116;SDS011;58775;46.992;9.518;2023-11-19T02:08:17;1.80;;;0.40;;
71116;SDS011;58775;46.992;9.518;2023-11-19T02:10:18;0.73;;;0.32;;
71116;SDS011;58775;46.992;9.518;2023-11-19T02:12:19;1.48;;;0.52;;
71116;SDS011;58775;46.992;9.518;2023-11-19T02:14:22;1.33;;;0.40;;
71116;SDS011;58775;46.992;9.518;2023-11-19T02:16:26;2.67;;;0.50;;
71116;SDS011;58775;46.992;9.518;2023-11-19T02:18:28;2.53;;;0.30;;
71116;SDS011;58775;46.992;9.518;2023-11-19T02:20:30;1.77;;;0.47;;
71116;SDS011;58775;46.992;9.518;2023-11-19T02:22:31;2.13;;;0.35;;
71116;SDS011;58775;46.992;9.518;2023-11-19T02:24:32;1.73;;;0.30;;
71116;SDS011;58775;46.992;9.518;2023-11-19T02:28:47;1.90;;;0.40;;
71116;SDS011;58775;46.992;9.518;2023-11-19T02:30:48;1.45;;;0.30;;
71116;SDS011;58775;46.992;9.518;2023-11-19T02:32:49;1.55;;;0.35;;
71116;SDS011;58775;46.992;9.518;2023-11-19T02:34:50;1.77;;;0.30;;
71116;SDS011;58775;46.992;9.518;2023-11-19T02:36:51;1.57;;;0.20;;
71116;SDS011;58775;46.992;9.518;2023-11-19T02:38:53;1.45;;;0.28;;
71116;SDS011;58775;46.992;9.518;2023-11-19T02:40:55;1.17;;;0.30;;
71116;SDS011;58775;46.992;9.518;2023-11-19T02:42:56;1.40;;;0.40;;
71116;SDS011;58775;46.992;9.518;2023-11-19T02:44:58;1.38;;;0.32;;
71116;SDS011;58775;46.992;9.518;2023-11-19T02:46:59;4.25;;;0.43;;
71116;SDS011;58775;46.992;9.518;2023-11-19T02:49:00;3.08;;;0.38;;
71116;SDS011;58775;46.992;9.518;2023-11-19T02:51:02;1.73;;;0.40;;
71116;SDS011;58775;46.992;9.518;2023-11-19T02:53:09;2.35;;;0.30;;
71116;SDS011;58775;46.992;9.518;2023-11-19T02:55:11;1.63;;;0.40;;
71116;SDS011;58775;46.992;9.518;2023-11-19T02:57:15;1.15;;;0.30;;
71116;SDS011;58775;46.992;9.518;2023-11-19T02:59:19;1.37;;;0.30;;
71116;SDS011;58775;46.992;9.518;2023-11-19T03:01:27;1.95;;;0.40;;
71116;SDS011;58775;46.992;9.518;2023-11-19T03:03:31;1.25;;;0.30;;
71116;SDS011;58775;46.992;9.518;2023-11-19T03:05:38;1.80;;;0.40;;
71116;SDS011;58775;46.992;9.518;2023-11-19T03:07:41;2.13;;;0.40;;
71116;SDS011;58775;46.992;9.518;2023-11-19T03:09:43;1.97;;;0.73;;
71116;SDS011;58775;46.992;9.518;2023-11-19T03:11:44;2.83;;;0.50;;
71116;SDS011;58775;46.992;9.518;2023-11-19T03:13:45;2.58;;;0.50;;
71116;SDS011;58775;46.992;9.518;2023-11-19T03:15:47;2.38;;;0.40;;
71116;SDS011;58775;46.992;9.518;2023-11-19T03:17:48;1.77;;;0.60;;
71116;SDS011;58775;46.992;9.518;2023-11-19T03:19:50;0.93;;;0.25;;
71116;SDS011;58775;46.992;9.518;2023-11-19T03:21:51;2.50;;;0.50;;
71116;SDS011;58775;46.992;9.518;2023-11-19T03:23:51;2.43;;;0.60;;
71116;SDS011;58775;46.992;9.518;2023-11-19T03:25:52;1.90;;;0.50;;
71116;SDS011;58775;46.992;9.518;2023-11-19T03:27:55;3.45;;;0.68;;
71116;SDS011;58775;46.992;9.518;2023-11-19T03:29:56;2.72;;;0.40;;
71116;SDS011;58775;46.992;9.518;2023-11-19T03:31:57;1.08;;;0.30;;
71116;SDS011;58775;46.992;9.518;2023-11-19T03:33:58;1.90;;;0.50;;
71116;SDS011;58775;46.992;9.518;2023-11-19T03:35:59;2.33;;;0.40;;
71116;SDS011;58775;46.992;9.518;2023-11-19T03:37:59;2.47;;;0.30;;
71116;SDS011;58775;46.992;9.518;2023-11-19T03:40:01;2.40;;;0.60;;
71116;SDS011;58775;46.992;9.518;2023-11-19T03:42:02;3.20;;;0.50;;
71116;SDS011;58775;46.992;9.518;2023-11-19T03:44:03;2.60;;;0.70;;
71116;SDS011;58775;46.992;9.518;2023-11-19T03:46:04;1.83;;;0.40;;
71116;SDS011;58775;46.992;9.518;2023-11-19T03:48:15;2.42;;;0.52;;
71116;SDS011;58775;46.992;9.518;2023-11-19T03:50:16;2.10;;;0.50;;
71116;SDS011;58775;46.992;9.518;2023-11-19T03:52:20;2.50;;;0.50;;
71116;SDS011;58775;46.992;9.518;2023-11-19T03:54:21;2.30;;;0.57;;
71116;SDS011;58775;46.992;9.518;2023-11-19T03:56:23;2.92;;;0.52;;
71116;SDS011;58775;46.992;9.518;2023-11-19T03:58:24;2.57;;;0.63;;
71116;SDS011;58775;46.992;9.518;2023-11-19T04:00:24;2.00;;;0.40;;
71116;SDS011;58775;46.992;9.518;2023-11-19T04:02:25;1.70;;;0.50;;
71116;SDS011;58775;46.992;9.518;2023-11-19T04:04:29;3.13;;;0.50;;
71116;SDS011;58775;46.992;9.518;2023-11-19T04:06:30;1.95;;;0.50;;
71116;SDS011;58775;46.992;9.518;2023-11-19T04:08:31;2.25;;;0.60;;
71116;SDS011;58775;46.992;9.518;2023-11-19T04:10:31;4.28;;;0.75;;
71116;SDS011;58775;46.992;9.518;2023-11-19T04:12:32;2.65;;;0.60;;
71116;SDS011;58775;46.992;9.518;2023-11-19T04:14:33;1.67;;;0.50;;
71116;SDS011;58775;46.992;9.518;2023-11-19T04:16:34;1.58;;;0.40;;
71116;SDS011;58775;46.992;9.518;2023-11-19T04:18:35;3.40;;;0.40;;
71116;SDS011;58775;46.992;9.518;2023-11-19T04:20:36;3.40;;;0.60;;
71116;SDS011;58775;46.992;9.518;2023-11-19T04:22:36;2.55;;;0.40;;
71116;SDS011;58775;46.992;9.518;2023-11-19T04:24:37;2.70;;;0.50;;
71116;SDS011;58775;46.992;9.518;2023-11-19T04:26:40;1.83;;;0.50;;
71116;SDS011;58775;46.992;9.518;2023-11-19T04:28:42;3.65;;;1.08;;
71116;SDS011;58775;46.992;9.518;2023-11-19T04:30:43;1.45;;;0.50;;
71116;SDS011;58775;46.992;9.518;2023-11-19T04:32:44;3.50;;;0.90;;
71116;SDS011;58775;46.992;9.518;2023-11-19T04:34:45;2.15;;;0.60;;
71116;SDS011;58775;46.992;9.518;2023-11-19T04:36:46;1.43;;;0.40;;
71116;SDS011;58775;46.992;9.518;2023-11-19T04:38:46;2.40;;;0.52;;
71116;SDS011;58775;46.992;9.518;2023-11-19T04:40:47;2.07;;;0.57;;
71116;SDS011;58775;46.992;9.518;2023-11-19T04:42:48;2.25;;;0.40;;
71116;SDS011;58775;46.992;9.518;2023-11-19T04:44:49;2.70;;;0.75;;
71116;SDS011;58775;46.992;9.518;2023-11-19T04:46:50;2.00;;;0.50;;
71116;SDS011;58775;46.992;9.518;2023-11-19T04:48:51;2.00;;;0.50;;
71116;SDS011;58775;46.992;9.518;2023-11-19T04:50:51;2.83;;;0.73;;
71116;SDS011;58775;46.992;9.518;2023-11-19T04:52:52;4.32;;;1.10;;
71116;SDS011;58775;46.992;9.518;2023-11-19T04:54:54;2.70;;;0.47;;
71116;SDS011;58775;46.992;9.518;2023-11-19T04:56:54;2.00;;;0.50;;
71116;SDS011;58775;46.992;9.518;2023-11-19T04:58:55;3.83;;;0.60;;
71116;SDS011;58775;46.992;9.518;2023-11-19T05:00:56;2.40;;;0.60;;
71116;SDS011;58775;46.992;9.518;2023-11-19T05:02:57;2.77;;;0.50;;
71116;SDS011;58775;46.992;9.518;2023-11-19T05:04:58;1.55;;;0.55;;
71116;SDS011;58775;46.992;9.518;2023-11-19T05:06:59;1.13;;;0.30;;
71116;SDS011;58775;46.992;9.518;2023-11-19T05:09:00;3.20;;;0.43;;
71116;SDS011;58775;46.992;9.518;2023-11-19T05:11:01;2.80;;;0.70;;
71116;SDS011;58775;46.992;9.518;2023-11-19T05:13:02;2.75;;;0.57;;
71116;SDS011;58775;46.992;9.518;2023-11-19T05:15:03;2.47;;;0.60;;
71116;SDS011;58775;46.992;9.518;2023-11-19T05:17:04;2.97;;;0.50;;
71116;SDS011;58775;46.992;9.518;2023-11-19T05:19:05;3.08;;;0.60;;
71116;SDS011;58775;46.992;9.518;2023-11-19T05:21:06;2.93;;;0.70;;
71116;SDS011;58775;46.992;9.518;2023-11-19T05:23:10;2.88;;;0.60;;
71116;SDS011;58775;46.992;9.518;2023-11-19T05:25:11;2.45;;;0.63;;
71116;SDS011;58775;46.992;9.518;2023-11-19T05:27:12;3.70;;;0.80;;
71116;SDS011;58775;46.992;9.518;2023-11-19T05:29:13;2.15;;;0.75;;
71116;SDS011;58775;46.992;9.518;2023-11-19T05:31:15;1.83;;;0.50;;
71116;SDS011;58775;46.992;9.518;2023-11-19T05:33:17;2.63;;;0.80;;
71116;SDS011;58775;46.992;9.518;2023-11-19T05:35:18;3.70;;;0.60;;
71116;SDS011;58775;46.992;9.518;2023-11-19T05:37:19;2.75;;;0.77;;
71116;SDS011;58775;46.992;9.518;2023-11-19T05:39:20;2.78;;;0.55;;
71116;SDS011;58775;46.992;9.518;2023-11-19T05:41:21;3.23;;;0.53;;
71116;SDS011;58775;46.992;9.518;2023-11-19T05:43:21;5.15;;;0.77;;
71116;SDS011;58775;46.992;9.518;2023-11-19T05:45:22;2.15;;;0.60;;
71116;SDS011;58775;46.992;9.518;2023-11-19T05:47:23;1.83;;;0.60;;
71116;SDS011;58775;46.992;9.518;2023-11-19T05:49:24;1.88;;;0.60;;
71116;SDS011;58775;46.992;9.518;2023-11-19T05:51:25;2.53;;;0.63;;
71116;SDS011;58775;46.992;9.518;2023-11-19T05:53:25;1.85;;;0.52;;
71116;SDS011;58775;46.992;9.518;2023-11-19T05:55:26;1.87;;;0.70;;
71116;SDS011;58775;46.992;9.518;2023-11-19T05:57:28;2.13;;;0.70;;
71116;SDS011;58775;46.992;9.518;2023-11-19T05:59:29;3.47;;;0.70;;
71116;SDS011;58775;46.992;9.518;2023-11-19T06:01:30;1.65;;;0.50;;
71116;SDS011;58775;46.992;9.518;2023-11-19T06:03:31;2.08;;;0.60;;
71116;SDS011;58775;46.992;9.518;2023-11-19T06:05:32;2.85;;;0.70;;
71116;SDS011;58775;46.992;9.518;2023-11-19T06:07:33;1.88;;;0.40;;
71116;SDS011;58775;46.992;9.518;2023-11-19T06:09:35;1.88;;;0.52;;
71116;SDS011;58775;46.992;9.518;2023-11-19T06:11:36;3.00;;;0.70;;
71116;SDS011;58775;46.992;9.518;2023-11-19T06:13:37;4.10;;;0.60;;
71116;SDS011;58775;46.992;9.518;2023-11-19T06:15:38;2.40;;;0.40;;
71116;SDS011;58775;46.992;9.518;2023-11-19T06:17:38;1.92;;;0.55;;
71116;SDS011;58775;46.992;9.518;2023-11-19T06:19:39;4.72;;;1.00;;
71116;SDS011;58775;46.992;9.518;2023-11-19T06:21:40;3.93;;;0.60;;
71116;SDS011;58775;46.992;9.518;2023-11-19T06:23:42;4.15;;;0.90;;
71116;SDS011;58775;46.992;9.518;2023-11-19T06:25:42;2.50;;;0.80;;
71116;SDS011;58775;46.992;9.518;2023-11-19T06:27:43;1.83;;;0.63;;
71116;SDS011;58775;46.992;9.518;2023-11-19T06:29:44;3.55;;;1.02;;
71116;SDS011;58775;46.992;9.518;2023-11-19T06:31:45;2.53;;;1.00;;
71116;SDS011;58775;46.992;9.518;2023-11-19T06:33:48;2.90;;;0.70;;
71116;SDS011;58775;46.992;9.518;2023-11-19T06:35:49;3.07;;;0.80;;
71116;SDS011;58775;46.992;9.518;2023-11-19T06:37:50;6.15;;;1.00;;
71116;SDS011;58775;46.992;9.518;2023-11-19T06:39:51;3.85;;;0.90;;
71116;SDS011;58775;46.992;9.518;2023-11-19T06:41:52;3.20;;;0.80;;
71116;SDS011;58775;46.992;9.518;2023-11-19T06:43:52;2.92;;;0.85;;
71116;SDS011;58775;46.992;9.518;2023-11-19T06:45:53;4.10;;;0.60;;
71116;SDS011;58775;46.992;9.518;2023-11-19T06:47:54;4.03;;;0.88;;
71116;SDS011;58775;46.992;9.518;2023-11-19T06:49:55;2.47;;;0.60;;
71116;SDS011;58775;46.992;9.518;2023-11-19T06:51:56;4.05;;;0.93;;
71116;SDS011;58775;46.992;9.518;2023-11-19T06:53:57;5.13;;;1.07;;
71116;SDS011;58775;46.992;9.518;2023-11-19T06:55:58;2.45;;;0.75;;
71116;SDS011;58775;46.992;9.518;2023-11-19T06:57:59;5.00;;;1.63;;
71116;SDS011;58775;46.992;9.518;2023-11-19T07:00:03;5.35;;;1.30;;
71116;SDS011;58775;46.992;9.518;2023-11-19T07:02:06;5.82;;;1.02;;
71116;SDS011;58775;46.992;9.518;2023-11-19T07:04:07;3.88;;;0.73;;
71116;SDS011;58775;46.992;9.518;2023-11-19T07:06:10;3.15;;;0.77;;
71116;SDS011;58775;46.992;9.518;2023-11-19T07:08:13;4.20;;;0.97;;
71116;SDS011;58775;46.992;9.518;2023-11-19T07:10:14;2.85;;;0.80;;
71116;SDS011;58775;46.992;9.518;2023-11-19T07:12:15;3.67;;;0.82;;
71116;SDS011;58775;46.992;9.518;2023-11-19T07:14:16;3.83;;;1.17;;
71116;SDS011;58775;46.992;9.518;2023-11-19T07:16:17;3.05;;;0.70;;
71116;SDS011;58775;46.992;9.518;2023-11-19T07:18:18;2.10;;;0.70;;
71116;SDS011;58775;46.992;9.518;2023-11-19T07:20:18;4.95;;;1.05;;
71116;SDS011;58775;46.992;9.518;2023-11-19T07:22:19;5.38;;;1.10;;
71116;SDS011;58775;46.992;9.518;2023-11-19T07:24:20;3.80;;;1.30;;
71116;SDS011;58775;46.992;9.518;2023-11-19T07:26:22;3.92;;;1.10;;
71116;SDS011;58775;46.992;9.518;2023-11-19T07:28:23;3.55;;;1.10;;
71116;SDS011;58775;46.992;9.518;2023-11-19T07:30:25;6.60;;;2.75;;
71116;SDS011;58775;46.992;9.518;2023-11-19T07:32:26;5.97;;;1.57;;
71116;SDS011;58775;46.992;9.518;2023-11-19T07:34:26;4.30;;;1.02;;
71116;SDS011;58775;46.992;9.518;2023-11-19T07:36:27;6.50;;;1.67;;
71116;SDS011;58775;46.992;9.518;2023-11-19T07:38:28;6.07;;;1.90;;
71116;SDS011;58775;46.992;9.518;2023-11-19T07:40:29;6.70;;;2.00;;
71116;SDS011;58775;46.992;9.518;2023-11-19T07:42:29;4.60;;;1.50;;
71116;SDS011;58775;46.992;9.518;2023-11-19T07:44:31;4.40;;;0.98;;
71116;SDS011;58775;46.992;9.518;2023-11-19T07:46:32;7.53;;;1.33;;
71116;SDS011;58775;46.992;9.518;2023-11-19T07:48:33;4.70;;;0.90;;
71116;SDS011;58775;46.992;9.518;2023-11-19T07:50:35;5.55;;;0.95;;
71116;SDS011;58775;46.992;9.518;2023-11-19T07:52:36;3.97;;;1.30;;
71116;SDS011;58775;46.992;9.518;2023-11-19T07:54:37;3.13;;;0.80;;
71116;SDS011;58775;46.992;9.518;2023-11-19T07:56:38;4.28;;;0.80;;
71116;SDS011;58775;46.992;9.518;2023-11-19T07:58:39;3.55;;;0.80;;
71116;SDS011;58775;46.992;9.518;2023-11-19T08:00:40;3.77;;;1.07;;
71116;SDS011;58775;46.992;9.518;2023-11-19T08:02:41;5.88;;;1.00;;
71116;SDS011;58775;46.992;9.518;2023-11-19T08:04:43;4.85;;;0.77;;
71116;SDS011;58775;46.992;9.518;2023-11-19T08:06:46;3.28;;;0.70;;
71116;SDS011;58775;46.992;9.518;2023-11-19T08:08:47;3.80;;;0.77;;
71116;SDS011;58775;46.992;9.518;2023-11-19T08:10:48;4.25;;;1.05;;
71116;SDS011;58775;46.992;9.518;2023-11-19T08:12:49;7.65;;;2.28;;
71116;SDS011;58775;46.992;9.518;2023-11-19T08:14:50;6.60;;;2.58;;
71116;SDS011;58775;46.992;9.518;2023-11-19T08:16:51;7.13;;;2.03;;
71116;SDS011;58775;46.992;9.518;2023-11-19T08:18:51;8.15;;;3.60;;
71116;SDS011;58775;46.992;9.518;2023-11-19T08:20:52;7.57;;;4.33;;
71116;SDS011;58775;46.992;9.518;2023-11-19T08:22:53;4.20;;;1.40;;
71116;SDS011;58775;46.992;9.518;2023-11-19T08:24:54;6.28;;;2.28;;
71116;SDS011;58775;46.992;9.518;2023-11-19T08:26:55;10.10;;;4.90;;
71116;SDS011;58775;46.992;9.518;2023-11-19T08:28:56;7.72;;;2.38;;
71116;SDS011;58775;46.992;9.518;2023-11-19T08:30:58;3.22;;;1.10;;
71116;SDS011;58775;46.992;9.518;2023-11-19T08:32:59;5.20;;;1.02;;
71116;SDS011;58775;46.992;9.518;2023-11-19T08:35:03;6.83;;;2.17;;
71116;SDS011;58775;46.992;9.518;2023-11-19T08:37:04;5.95;;;2.92;;
71116;SDS011;58775;46.992;9.518;2023-11-19T08:39:04;5.65;;;1.45;;
71116;SDS011;58775;46.992;9.518;2023-11-19T08:41:05;3.20;;;1.23;;
71116;SDS011;58775;46.992;9.518;2023-11-19T08:43:06;5.53;;;1.17;;
71116;SDS011;58775;46.992;9.518;2023-11-19T08:45:07;4.60;;;1.17;;
71116;SDS011;58775;46.992;9.518;2023-11-19T08:47:12;6.60;;;1.73;;
71116;SDS011;58775;46.992;9.518;2023-11-19T08:49:13;6.43;;;2.30;;
71116;SDS011;58775;46.992;9.518;2023-11-19T08:51:14;9.50;;;2.85;;
71116;SDS011;58775;46.992;9.518;2023-11-19T08:53:14;5.78;;;1.83;;
71116;SDS011;58775;46.992;9.518;2023-11-19T08:55:15;4.90;;;1.52;;
71116;SDS011;58775;46.992;9.518;2023-11-19T08:57:16;5.20;;;1.42;;
71116;SDS011;58775;46.992;9.518;2023-11-19T08:59:17;4.07;;;0.90;;
71116;SDS011;58775;46.992;9.518;2023-11-19T09:01:19;5.32;;;1.67;;
71116;SDS011;58775;46.992;9.518;2023-11-19T09:03:20;7.40;;;2.27;;
71116;SDS011;58775;46.992;9.518;2023-11-19T09:05:21;4.57;;;1.30;;
71116;SDS011;58775;46.992;9.518;2023-11-19T09:07:21;4.22;;;1.40;;
71116;SDS011;58775;46.992;9.518;2023-11-19T09:09:22;5.80;;;1.70;;
71116;SDS011;58775;46.992;9.518;2023-11-19T09:11:23;7.13;;;2.00;;
71116;SDS011;58775;46.992;9.518;2023-11-19T09:13:24;5.60;;;1.33;;
71116;SDS011;58775;46.992;9.518;2023-11-19T09:15:25;3.73;;;0.97;;
71116;SDS011;58775;46.992;9.518;2023-11-19T09:17:25;3.03;;;0.70;;
71116;SDS011;58775;46.992;9.518;2023-11-19T09:19:26;5.17;;;1.40;;
71116;SDS011;58775;46.992;9.518;2023-11-19T09:21:27;4.90;;;1.38;;
71116;SDS011;58775;46.992;9.518;2023-11-19T09:23:29;5.18;;;1.10;;
71116;SDS011;58775;46.992;9.518;2023-11-19T09:25:33;3.50;;;0.90;;
71116;SDS011;58775;46.992;9.518;2023-11-19T09:27:34;4.18;;;0.80;;
71116;SDS011;58775;46.992;9.518;2023-11-19T09:29:35;4.20;;;1.10;;
71116;SDS011;58775;46.992;9.518;2023-11-19T09:31:39;3.38;;;0.85;;
71116;SDS011;58775;46.992;9.518;2023-11-19T09:33:40;2.97;;;0.80;;
71116;SDS011;58775;46.992;9.518;2023-11-19T09:35:41;2.00;;;0.60;;
71116;SDS011;58775;46.992;9.518;2023-11-19T09:37:43;3.08;;;0.80;;
71116;SDS011;58775;46.992;9.518;2023-11-19T09:39:44;2.53;;;0.55;;
71116;SDS011;58775;46.992;9.518;2023-11-19T09:41:45;5.10;;;0.87;;
71116;SDS011;58775;46.992;9.518;2023-11-19T09:43:45;3.33;;;1.13;;
71116;SDS011;58775;46.992;9.518;2023-11-19T09:45:48;6.57;;;2.05;;
71116;SDS011;58775;46.992;9.518;2023-11-19T09:47:50;5.90;;;1.80;;
71116;SDS011;58775;46.992;9.518;2023-11-19T09:49:53;5.30;;;0.93;;
71116;SDS011;58775;46.992;9.518;2023-11-19T09:51:54;2.65;;;0.90;;
71116;SDS011;58775;46.992;9.518;2023-11-19T09:53:55;3.80;;;1.20;;
71116;SDS011;58775;46.992;9.518;2023-11-19T09:55:56;2.78;;;1.23;;
71116;SDS011;58775;46.992;9.518;2023-11-19T09:57:57;4.15;;;1.30;;
71116;SDS011;58775;46.992;9.518;2023-11-19T10:00:01;3.20;;;0.98;;
71116;SDS011;58775;46.992;9.518;2023-11-19T10:02:05;3.65;;;1.00;;
71116;SDS011;58775;46.992;9.518;2023-11-19T10:04:07;4.78;;;1.35;;
71116;SDS011;58775;46.992;9.518;2023-11-19T10:06:09;4.50;;;0.95;;
71116;SDS011;58775;46.992;9.518;2023-11-19T10:08:11;3.45;;;1.00;;
71116;SDS011;58775;46.992;9.518;2023-11-19T10:10:12;7.05;;;1.10;;
71116;SDS011;58775;46.992;9.518;2023-11-19T10:12:18;4.80;;;1.52;;
71116;SDS011;58775;46.992;9.518;2023-11-19T10:14:20;4.50;;;1.90;;
71116;SDS011;58775;46.992;9.518;2023-11-19T10:16:28;5.00;;;1.42;;
71116;SDS011;58775;46.992;9.518;2023-11-19T10:18:30;4.07;;;1.20;;
71116;SDS011;58775;46.992;9.518;2023-11-19T10:20:37;3.65;;;1.00;;
71116;SDS011;58775;46.992;9.518;2023-11-19T10:22:40;4.00;;;1.05;;
71116;SDS011;58775;46.992;9.518;2023-11-19T10:24:42;5.82;;;1.10;;
71116;SDS011;58775;46.992;9.518;2023-11-19T10:26:43;5.85;;;1.00;;
71116;SDS011;58775;46.992;9.518;2023-11-19T10:28:43;2.53;;;0.80;;
71116;SDS011;58775;46.992;9.518;2023-11-19T10:30:46;4.18;;;1.05;;
71116;SDS011;58775;46.992;9.518;2023-11-19T10:33:05;5.38;;;1.10;;
71116;SDS011;58775;46.992;9.518;2023-11-19T10:35:06;2.22;;;0.70;;
71116;SDS011;58775;46.992;9.518;2023-11-19T10:37:07;3.15;;;0.77;;
71116;SDS011;58775;46.992;9.518;2023-11-19T10:39:08;4.20;;;1.13;;
71116;SDS011;58775;46.992;9.518;2023-11-19T10:41:09;4.38;;;0.90;;
71116;SDS011;58775;46.992;9.518;2023-11-19T10:43:10;6.97;;;1.70;;
71116;SDS011;58775;46.992;9.518;2023-11-19T10:45:23;8.63;;;4.65;;
71116;SDS011;58775;46.992;9.518;2023-11-19T10:47:24;4.13;;;1.63;;
71116;SDS011;58775;46.992;9.518;2023-11-19T10:49:26;5.53;;;1.58;;
71116;SDS011;58775;46.992;9.518;2023-11-19T10:51:28;3.20;;;0.90;;
71116;SDS011;58775;46.992;9.518;2023-11-19T10:53:29;4.30;;;0.90;;
71116;SDS011;58775;46.992;9.518;2023-11-19T10:55:31;3.58;;;0.90;;
71116;SDS011;58775;46.992;9.518;2023-11-19T10:57:35;5.38;;;1.10;;
71116;SDS011;58775;46.992;9.518;2023-11-19T10:59:37;7.97;;;0.93;;
71116;SDS011;58775;46.992;9.518;2023-11-19T11:01:43;2.92;;;0.80;;
71116;SDS011;58775;46.992;9.518;2023-11-19T11:03:45;4.80;;;1.17;;
71116;SDS011;58775;46.992;9.518;2023-11-19T11:05:47;5.35;;;1.63;;
71116;SDS011;58775;46.992;9.518;2023-11-19T11:07:48;6.13;;;1.50;;
71116;SDS011;58775;46.992;9.518;2023-11-19T11:09:51;3.87;;;1.40;;
71116;SDS011;58775;46.992;9.518;2023-11-19T11:11:52;4.80;;;1.20;;
71116;SDS011;58775;46.992;9.518;2023-11-19T11:13:54;3.85;;;1.20;;
71116;SDS011;58775;46.992;9.518;2023-11-19T11:15:58;3.80;;;1.13;;
71116;SDS011;58775;46.992;9.518;2023-11-19T11:18:02;2.33;;;0.90;;
71116;SDS011;58775;46.992;9.518;2023-11-19T11:20:03;4.57;;;0.90;;
71116;SDS011;58775;46.992;9.518;2023-11-19T11:22:05;2.47;;;0.73;;
71116;SDS011;58775;46.992;9.518;2023-11-19T11:26:43;4.30;;;1.25;;
71116;SDS011;58775;46.992;9.518;2023-11-19T11:29:05;4.80;;;1.10;;
71116;SDS011;58775;46.992;9.518;2023-11-19T11:36:22;5.25;;;1.52;;
71116;SDS011;58775;46.992;9.518;2023-11-19T11:38:23;5.80;;;2.13;;
71116;SDS011;58775;46.992;9.518;2023-11-19T11:40:24;6.77;;;2.60;;
71116;SDS011;58775;46.992;9.518;2023-11-19T11:47:09;3.55;;;1.00;;
71116;SDS011;58775;46.992;9.518;2023-11-19T11:49:10;6.43;;;3.45;;
71116;SDS011;58775;46.992;9.518;2023-11-19T11:51:12;5.93;;;2.90;;
71116;SDS011;58775;46.992;9.518;2023-11-19T11:53:13;4.30;;;1.97;;
71116;SDS011;58775;46.992;9.518;2023-11-19T11:55:16;4.45;;;2.03;;
71116;SDS011;58775;46.992;9.518;2023-11-19T11:57:17;4.85;;;1.60;;
71116;SDS011;58775;46.992;9.518;2023-11-19T11:59:18;4.77;;;1.10;;
71116;SDS011;58775;46.992;9.518;2023-11-19T12:01:19;3.42;;;1.00;;
71116;SDS011;58775;46.992;9.518;2023-11-19T12:03:21;2.90;;;1.00;;
71116;SDS011;58775;46.992;9.518;2023-11-19T12:05:22;3.22;;;0.88;;
71116;SDS011;58775;46.992;9.518;2023-11-19T12:07:24;4.20;;;0.88;;
71116;SDS011;58775;46.992;9.518;2023-11-19T12:09:26;3.40;;;0.80;;
71116;SDS011;58775;46.992;9.518;2023-11-19T12:11:27;2.63;;;0.85;;
71116;SDS011;58775;46.992;9.518;2023-11-19T12:13:47;5.90;;;1.00;;
71116;SDS011;58775;46.992;9.518;2023-11-19T12:17:57;3.70;;;0.70;;
71116;SDS011;58775;46.992;9.518;2023-11-19T12:20:00;5.07;;;1.10;;
71116;SDS011;58775;46.992;9.518;2023-11-19T12:22:11;4.72;;;0.98;;
71116;SDS011;58775;46.992;9.518;2023-11-19T12:24:13;5.57;;;1.10;;
71116;SDS011;58775;46.992;9.518;2023-11-19T12:26:47;3.40;;;1.20;;
71116;SDS011;58775;46.992;9.518;2023-11-19T12:28:41;4.22;;;1.00;;
71116;SDS011;58775;46.992;9.518;2023-11-19T12:31:09;4.85;;;0.98;;